Private Wetterstation Wechselburg
Wetterdaten: Montag, 10.09.2012
Datum Zeit Temp. +2m Bodentemp. Temp.+5cm Temp. Wind Windchill X Diff Temp. Feuchte +2m Feuchte +5cm Sonnenschein Luftdruck Regen Wind Richtung Richtung Sonnenschein UV Taupunkt Windchill Windben
10.09.2012 00:00 18,5 C 22,7 C 18,3 C 18,2 C 17,6 C 0,0 C 74 % 78 % 0 % 1014,4 hPa 0,0 l/m 0,0 km/h (0 Bft) W-NW 292 0 min 0,0 UV-I 13,8 C 17,6 C 0,0 km/h (0 Bft)
10.09.2012 00:05 18,5 C 22,7 C 18,2 C 18,2 C 17,5 C 0,0 C 74 % 79 % 0 % 1014,4 hPa 0,0 l/m 0,0 km/h (0 Bft) N-NW 337 0 min 0,0 UV-I 13,8 C 17,5 C 0,0 km/h (0 Bft)
10.09.2012 00:10 18,3 C 22,7 C 18,2 C 18,0 C 17,4 C 0,0 C 74 % 79 % 0 % 1014,4 hPa 0,0 l/m 0,0 km/h (0 Bft) NO 45 0 min 0,0 UV-I 13,6 C 17,4 C 0,0 km/h (0 Bft)
10.09.2012 00:15 18,1 C 22,7 C 18,1 C 17,8 C 17,2 C 0,0 C 75 % 79 % 0 % 1014,4 hPa 0,0 l/m 0,0 km/h (0 Bft) O-NO 67 0 min 0,0 UV-I 13,6 C 17,2 C 0,0 km/h (0 Bft)
10.09.2012 00:20 18,0 C 22,7 C 18,0 C 17,7 C 17,1 C 0,0 C 75 % 79 % 0 % 1014,4 hPa 0,0 l/m 0,0 km/h (0 Bft) NO 45 0 min 0,0 UV-I 13,5 C 17,1 C 0,0 km/h (0 Bft)
10.09.2012 00:25 18,0 C 22,7 C 18,0 C 17,7 C 17,1 C 0,0 C 76 % 79 % 0 % 1014,6 hPa 0,0 l/m 0,0 km/h (0 Bft) NW 315 0 min 0,0 UV-I 13,7 C 17,1 C 0,0 km/h (0 Bft)
10.09.2012 00:30 17,9 C 22,7 C 17,9 C 17,6 C 17,0 C 0,0 C 76 % 79 % 0 % 1014,6 hPa 0,0 l/m 0,0 km/h (0 Bft) N-NW 337 0 min 0,0 UV-I 13,6 C 17,0 C 0,0 km/h (0 Bft)
10.09.2012 00:35 17,9 C 22,7 C 17,9 C 17,6 C 17,0 C 0,0 C 76 % 79 % 0 % 1014,6 hPa 0,0 l/m 0,0 km/h (0 Bft) N-NO 22 0 min 0,0 UV-I 13,6 C 17,0 C 0,0 km/h (0 Bft)
10.09.2012 00:46 17,6 C 22,7 C 17,5 C 17,2 C 16,5 C 0,0 C 77 % 80 % 0 % 1014,2 hPa 0,0 l/m 0,0 km/h (0 Bft) N 0 0 min 0,0 UV-I 13,5 C 16,5 C 0,0 km/h (0 Bft)
10.09.2012 01:00 17,2 C 22,8 C 17,1 C 16,9 C 16,3 C 0,0 C 78 % 81 % 0 % 1014,2 hPa 0,0 l/m 0,0 km/h (0 Bft) SO 135 0 min 0,0 UV-I 13,3 C 16,3 C 0,0 km/h (0 Bft)
10.09.2012 01:05 17,1 C 22,8 C 16,9 C 16,8 C 16,1 C 0,0 C 78 % 82 % 0 % 1014,1 hPa 0,0 l/m 0,0 km/h (0 Bft) SO 135 0 min 0,0 UV-I 13,2 C 16,1 C 0,0 km/h (0 Bft)
10.09.2012 01:10 16,8 C 22,8 C 16,9 C 16,5 C 16,0 C 0,0 C 78 % 82 % 0 % 1014,1 hPa 0,0 l/m 0,0 km/h (0 Bft) SO 135 0 min 0,0 UV-I 12,9 C 16,0 C 0,0 km/h (0 Bft)
10.09.2012 01:15 16,7 C 22,7 C 16,6 C 16,4 C 15,9 C 0,0 C 79 % 82 % 0 % 1014,1 hPa 0,0 l/m 0,0 km/h (0 Bft) SO 135 0 min 0,0 UV-I 13,0 C 15,9 C 0,0 km/h (0 Bft)
10.09.2012 01:20 16,4 C 22,8 C 16,6 C 16,2 C 15,8 C 0,0 C 79 % 82 % 0 % 1014,1 hPa 0,0 l/m 0,0 km/h (0 Bft) SO 135 0 min 0,0 UV-I 12,7 C 15,8 C 0,0 km/h (0 Bft)
10.09.2012 01:25 16,3 C 22,8 C 16,7 C 16,1 C 15,6 C 0,0 C 79 % 83 % 0 % 1013,9 hPa 0,0 l/m 0,0 km/h (0 Bft) SO 135 0 min 0,0 UV-I 12,6 C 15,6 C 0,0 km/h (0 Bft)
10.09.2012 01:30 16,1 C 22,8 C 16,8 C 15,9 C 15,5 C 0,0 C 79 % 83 % 0 % 1013,9 hPa 0,0 l/m 0,0 km/h (0 Bft) SO 135 0 min 0,0 UV-I 12,5 C 15,5 C 0,0 km/h (0 Bft)
10.09.2012 01:35 15,9 C 22,9 C 16,5 C 15,7 C 15,4 C 0,0 C 80 % 83 % 0 % 1013,9 hPa 0,0 l/m 0,0 km/h (0 Bft) SO 135 0 min 0,0 UV-I 12,5 C 15,4 C 0,0 km/h (0 Bft)
10.09.2012 01:40 15,6 C 22,9 C 16,4 C 15,5 C 15,4 C 0,0 C 80 % 83 % 0 % 1013,9 hPa 0,0 l/m 0,0 km/h (0 Bft) S-SO 157 0 min 0,0 UV-I 12,2 C 15,4 C 0,0 km/h (0 Bft)
10.09.2012 01:45 15,5 C 22,9 C 16,2 C 15,4 C 15,3 C 0,0 C 81 % 83 % 0 % 1013,9 hPa 0,0 l/m 0,0 km/h (0 Bft) S-SO 157 0 min 0,0 UV-I 12,3 C 15,3 C 0,0 km/h (0 Bft)
10.09.2012 01:50 15,4 C 22,8 C 16,3 C 15,3 C 15,2 C 0,0 C 80 % 84 % 0 % 1013,9 hPa 0,0 l/m 0,0 km/h (0 Bft) S-SO 157 0 min 0,0 UV-I 12,0 C 15,2 C 0,0 km/h (0 Bft)
10.09.2012 01:55 15,2 C 22,8 C 16,3 C 15,2 C 15,2 C 0,0 C 81 % 84 % 0 % 1013,9 hPa 0,0 l/m 0,0 km/h (0 Bft) S-SO 157 0 min 0,0 UV-I 12,0 C 15,2 C 0,0 km/h (0 Bft)
10.09.2012 02:00 15,1 C 22,8 C 16,0 C 15,2 C 15,2 C 0,1 C 81 % 84 % 0 % 1013,9 hPa 0,0 l/m 0,0 km/h (0 Bft) S-SO 157 0 min 0,0 UV-I 11,9 C 15,2 C 0,0 km/h (0 Bft)
10.09.2012 02:05 15,0 C 22,8 C 16,0 C 15,0 C 15,0 C 0,0 C 81 % 84 % 0 % 1013,9 hPa 0,0 l/m 0,0 km/h (0 Bft) S-SO 157 0 min 0,0 UV-I 11,8 C 15,0 C 0,0 km/h (0 Bft)
10.09.2012 02:10 14,9 C 22,8 C 16,0 C 14,9 C 14,9 C 0,0 C 82 % 85 % 0 % 1013,9 hPa 0,0 l/m 0,0 km/h (0 Bft) S-SO 157 0 min 0,0 UV-I 11,9 C 14,9 C 0,0 km/h (0 Bft)
10.09.2012 02:15 14,8 C 22,8 C 15,8 C 14,9 C 14,9 C 0,1 C 82 % 85 % 0 % 1013,9 hPa 0,0 l/m 0,0 km/h (0 Bft) S-SO 157 0 min 0,0 UV-I 11,8 C 14,9 C 0,0 km/h (0 Bft)
10.09.2012 02:20 14,6 C 22,8 C 15,6 C 14,9 C 14,9 C 0,3 C 82 % 84 % 0 % 1013,9 hPa 0,0 l/m 0,0 km/h (0 Bft) S-SO 157 0 min 0,0 UV-I 11,6 C 14,9 C 0,0 km/h (0 Bft)
10.09.2012 02:25 14,5 C 22,8 C 15,5 C 14,9 C 14,9 C 0,4 C 83 % 85 % 0 % 1013,8 hPa 0,0 l/m 0,0 km/h (0 Bft) S-SO 157 0 min 0,0 UV-I 11,6 C 14,9 C 0,0 km/h (0 Bft)
10.09.2012 02:30 14,5 C 22,8 C 15,5 C 14,9 C 14,9 C 0,4 C 83 % 85 % 0 % 1013,8 hPa 0,0 l/m 0,0 km/h (0 Bft) S-SO 157 0 min 0,0 UV-I 11,6 C 14,9 C 0,0 km/h (0 Bft)
10.09.2012 02:35 14,4 C 22,8 C 15,3 C 15,0 C 15,0 C 0,6 C 83 % 85 % 0 % 1013,8 hPa 0,0 l/m 0,0 km/h (0 Bft) S-SO 157 0 min 0,0 UV-I 11,5 C 15,0 C 0,0 km/h (0 Bft)
10.09.2012 02:40 14,4 C 22,9 C 15,3 C 15,1 C 15,1 C 0,7 C 83 % 86 % 0 % 1013,8 hPa 0,0 l/m 0,0 km/h (0 Bft) S-SO 157 0 min 0,0 UV-I 11,5 C 15,1 C 0,0 km/h (0 Bft)
10.09.2012 02:45 14,4 C 22,8 C 15,3 C 15,1 C 15,1 C 0,7 C 83 % 86 % 0 % 1013,9 hPa 0,0 l/m 0,0 km/h (0 Bft) S-SO 157 0 min 0,0 UV-I 11,5 C 15,1 C 0,0 km/h (0 Bft)
10.09.2012 02:50 14,3 C 22,8 C 15,3 C 14,9 C 14,9 C 0,6 C 83 % 86 % 0 % 1013,9 hPa 0,0 l/m 0,0 km/h (0 Bft) S-SO 157 0 min 0,0 UV-I 11,5 C 14,9 C 0,0 km/h (0 Bft)
10.09.2012 02:55 14,3 C 22,8 C 15,2 C 14,7 C 14,7 C 0,4 C 83 % 86 % 0 % 1013,9 hPa 0,0 l/m 0,0 km/h (0 Bft) S-SO 157 0 min 0,0 UV-I 11,5 C 14,7 C 0,0 km/h (0 Bft)
10.09.2012 03:00 14,2 C 22,8 C 15,2 C 14,5 C 14,5 C 0,3 C 84 % 86 % 0 % 1013,9 hPa 0,0 l/m 0,0 km/h (0 Bft) S-SO 157 0 min 0,0 UV-I 11,5 C 14,5 C 0,0 km/h (0 Bft)
10.09.2012 03:05 14,0 C 22,8 C 15,2 C 14,3 C 14,3 C 0,3 C 84 % 86 % 0 % 1013,8 hPa 0,0 l/m 0,0 km/h (0 Bft) S-SO 157 0 min 0,0 UV-I 11,3 C 14,3 C 0,0 km/h (0 Bft)
10.09.2012 03:10 14,1 C 22,8 C 15,1 C 14,3 C 14,3 C 0,2 C 84 % 86 % 0 % 1013,8 hPa 0,0 l/m 0,0 km/h (0 Bft) S-SO 157 0 min 0,0 UV-I 11,4 C 14,3 C 0,0 km/h (0 Bft)
10.09.2012 03:15 13,9 C 22,8 C 14,9 C 14,1 C 14,1 C 0,2 C 84 % 87 % 0 % 1013,8 hPa 0,0 l/m 0,0 km/h (0 Bft) S-SO 157 0 min 0,0 UV-I 11,2 C 14,1 C 0,0 km/h (0 Bft)
10.09.2012 03:20 13,8 C 22,7 C 15,0 C 14,0 C 14,0 C 0,2 C 84 % 87 % 0 % 1013,8 hPa 0,0 l/m 0,0 km/h (0 Bft) S 180 0 min 0,0 UV-I 11,1 C 14,0 C 0,0 km/h (0 Bft)
10.09.2012 03:25 13,7 C 22,7 C 14,9 C 13,8 C 13,8 C 0,1 C 84 % 87 % 0 % 1013,8 hPa 0,0 l/m 0,0 km/h (0 Bft) S-SO 157 0 min 0,0 UV-I 11,0 C 13,8 C 0,0 km/h (0 Bft)
10.09.2012 03:30 13,6 C 22,7 C 14,8 C 13,7 C 13,7 C 0,1 C 84 % 87 % 0 % 1013,8 hPa 0,0 l/m 0,0 km/h (0 Bft) S-SO 157 0 min 0,0 UV-I 10,9 C 13,7 C 0,0 km/h (0 Bft)
10.09.2012 03:35 13,6 C 22,7 C 14,8 C 13,6 C 13,5 C 0,0 C 85 % 87 % 0 % 1013,8 hPa 0,0 l/m 0,0 km/h (0 Bft) S-SO 157 0 min 0,0 UV-I 11,1 C 13,5 C 0,0 km/h (0 Bft)
10.09.2012 03:40 13,5 C 22,7 C 14,8 C 13,5 C 13,5 C 0,0 C 85 % 87 % 0 % 1013,8 hPa 0,0 l/m 0,0 km/h (0 Bft) S-SO 157 0 min 0,0 UV-I 11,0 C 13,5 C 0,0 km/h (0 Bft)
10.09.2012 03:45 13,5 C 22,7 C 14,6 C 13,6 C 13,6 C 0,1 C 86 % 87 % 0 % 1013,9 hPa 0,0 l/m 0,0 km/h (0 Bft) S-SO 157 0 min 0,0 UV-I 11,2 C 13,6 C 0,0 km/h (0 Bft)
10.09.2012 03:50 13,5 C 22,7 C 14,6 C 13,7 C 13,7 C 0,2 C 86 % 87 % 0 % 1013,9 hPa 0,0 l/m 0,0 km/h (0 Bft) S-SO 157 0 min 0,0 UV-I 11,2 C 13,7 C 0,0 km/h (0 Bft)
10.09.2012 03:55 13,5 C 22,7 C 14,5 C 13,7 C 13,7 C 0,2 C 86 % 87 % 0 % 1013,9 hPa 0,0 l/m 0,0 km/h (0 Bft) S-SO 157 0 min 0,0 UV-I 11,2 C 13,7 C 0,0 km/h (0 Bft)
10.09.2012 04:00 13,4 C 22,7 C 14,5 C 13,7 C 13,7 C 0,3 C 86 % 87 % 0 % 1013,9 hPa 0,0 l/m 0,0 km/h (0 Bft) S-SO 157 0 min 0,0 UV-I 11,1 C 13,7 C 0,0 km/h (0 Bft)
10.09.2012 04:05 13,3 C 22,7 C 14,4 C 13,7 C 13,7 C 0,4 C 86 % 88 % 0 % 1014,0 hPa 0,0 l/m 0,0 km/h (0 Bft) S-SO 157 0 min 0,0 UV-I 11,0 C 13,7 C 0,0 km/h (0 Bft)
10.09.2012 04:10 13,2 C 22,7 C 14,5 C 13,5 C 13,5 C 0,3 C 86 % 88 % 0 % 1014,0 hPa 0,0 l/m 0,0 km/h (0 Bft) S-SO 157 0 min 0,0 UV-I 10,9 C 13,5 C 0,0 km/h (0 Bft)
10.09.2012 04:15 13,3 C 22,7 C 14,4 C 13,4 C 13,4 C 0,1 C 86 % 88 % 0 % 1014,0 hPa 0,0 l/m 0,0 km/h (0 Bft) S-SO 157 0 min 0,0 UV-I 11,0 C 13,4 C 0,0 km/h (0 Bft)
10.09.2012 04:20 13,2 C 22,6 C 14,4 C 13,3 C 13,3 C 0,1 C 86 % 88 % 0 % 1014,0 hPa 0,0 l/m 0,0 km/h (0 Bft) S-SO 157 0 min 0,0 UV-I 10,9 C 13,3 C 0,0 km/h (0 Bft)
10.09.2012 04:25 13,1 C 22,7 C 14,4 C 13,2 C 13,2 C 0,1 C 86 % 88 % 0 % 1014,1 hPa 0,0 l/m 0,0 km/h (0 Bft) S-SO 157 0 min 0,0 UV-I 10,8 C 13,2 C 0,0 km/h (0 Bft)
10.09.2012 04:30 13,0 C 22,8 C 14,4 C 13,2 C 13,2 C 0,2 C 86 % 88 % 0 % 1014,1 hPa 0,0 l/m 0,0 km/h (0 Bft) S-SO 157 0 min 0,0 UV-I 10,7 C 13,2 C 0,0 km/h (0 Bft)
10.09.2012 04:35 13,1 C 22,7 C 14,3 C 13,1 C 13,1 C 0,0 C 87 % 88 % 0 % 1014,1 hPa 0,0 l/m 0,0 km/h (0 Bft) S-SO 157 0 min 0,0 UV-I 11,0 C 13,1 C 0,0 km/h (0 Bft)
10.09.2012 04:40 12,9 C 22,7 C 14,3 C 13,2 C 13,2 C 0,3 C 87 % 88 % 0 % 1014,1 hPa 0,0 l/m 0,0 km/h (0 Bft) S-SO 157 0 min 0,0 UV-I 10,8 C 13,2 C 0,0 km/h (0 Bft)
10.09.2012 04:45 12,9 C 22,7 C 14,3 C 13,2 C 13,2 C 0,3 C 87 % 88 % 0 % 1014,0 hPa 0,0 l/m 0,0 km/h (0 Bft) S-SO 157 0 min 0,0 UV-I 10,8 C 13,2 C 0,0 km/h (0 Bft)
10.09.2012 04:50 12,9 C 22,7 C 14,3 C 13,2 C 13,2 C 0,3 C 87 % 88 % 0 % 1014,0 hPa 0,0 l/m 0,0 km/h (0 Bft) S-SO 157 0 min 0,0 UV-I 10,8 C 13,2 C 0,0 km/h (0 Bft)
10.09.2012 04:55 12,9 C 22,7 C 14,3 C 13,2 C 13,2 C 0,3 C 87 % 88 % 0 % 1014,0 hPa 0,0 l/m 0,0 km/h (0 Bft) S-SO 157 0 min 0,0 UV-I 10,8 C 13,2 C 0,0 km/h (0 Bft)
10.09.2012 05:00 12,9 C 22,7 C 14,3 C 13,2 C 13,2 C 0,3 C 87 % 88 % 0 % 1014,0 hPa 0,0 l/m 0,0 km/h (0 Bft) S-SO 157 0 min 0,0 UV-I 10,8 C 13,2 C 0,0 km/h (0 Bft)
10.09.2012 05:05 12,8 C 22,7 C 14,3 C 13,2 C 13,2 C 0,4 C 88 % 88 % 0 % 1014,0 hPa 0,0 l/m 0,0 km/h (0 Bft) S-SO 157 0 min 0,0 UV-I 10,9 C 13,2 C 0,0 km/h (0 Bft)
10.09.2012 05:10 12,9 C 22,7 C 14,3 C 13,2 C 13,2 C 0,3 C 88 % 88 % 0 % 1014,0 hPa 0,0 l/m 0,0 km/h (0 Bft) S-SO 157 0 min 0,0 UV-I 11,0 C 13,2 C 0,0 km/h (0 Bft)
10.09.2012 05:15 12,9 C 22,7 C 14,0 C 13,2 C 13,2 C 0,3 C 88 % 88 % 0 % 1014,0 hPa 0,0 l/m 0,0 km/h (0 Bft) S-SO 157 0 min 0,0 UV-I 11,0 C 13,2 C 0,0 km/h (0 Bft)
10.09.2012 05:20 12,8 C 22,7 C 14,0 C 13,2 C 13,2 C 0,4 C 88 % 88 % 0 % 1014,0 hPa 0,0 l/m 0,0 km/h (0 Bft) S-SO 157 0 min 0,0 UV-I 10,9 C 13,2 C 0,0 km/h (0 Bft)
10.09.2012 05:25 12,8 C 22,7 C 14,1 C 13,2 C 13,2 C 0,4 C 88 % 88 % 0 % 1013,9 hPa 0,0 l/m 0,0 km/h (0 Bft) S-SO 157 0 min 0,0 UV-I 10,9 C 13,2 C 0,0 km/h (0 Bft)
10.09.2012 05:30 12,9 C 22,7 C 14,0 C 13,1 C 13,1 C 0,2 C 88 % 89 % 0 % 1013,9 hPa 0,0 l/m 0,0 km/h (0 Bft) S-SO 157 0 min 0,0 UV-I 11,0 C 13,1 C 0,0 km/h (0 Bft)
10.09.2012 05:35 12,8 C 22,6 C 14,1 C 13,0 C 13,0 C 0,2 C 88 % 89 % 0 % 1013,9 hPa 0,0 l/m 0,0 km/h (0 Bft) S 180 0 min 0,0 UV-I 10,9 C 13,0 C 0,0 km/h (0 Bft)
10.09.2012 05:40 12,7 C 22,6 C 14,0 C 13,0 C 13,0 C 0,3 C 88 % 89 % 0 % 1013,9 hPa 0,0 l/m 0,0 km/h (0 Bft) S-SO 157 0 min 0,0 UV-I 10,8 C 13,0 C 0,0 km/h (0 Bft)
10.09.2012 05:45 12,7 C 22,6 C 13,9 C 12,8 C 12,8 C 0,1 C 88 % 89 % 0 % 1013,9 hPa 0,0 l/m 0,0 km/h (0 Bft) S-SO 157 0 min 0,0 UV-I 10,8 C 12,8 C 0,0 km/h (0 Bft)
10.09.2012 05:50 12,6 C 22,6 C 13,8 C 12,8 C 12,8 C 0,2 C 88 % 89 % 0 % 1013,9 hPa 0,0 l/m 0,0 km/h (0 Bft) S-SO 157 0 min 0,0 UV-I 10,7 C 12,8 C 0,0 km/h (0 Bft)
10.09.2012 05:55 12,5 C 22,6 C 13,8 C 12,7 C 12,7 C 0,2 C 88 % 89 % 0 % 1013,9 hPa 0,0 l/m 0,0 km/h (0 Bft) S-SO 157 0 min 0,0 UV-I 10,6 C 12,7 C 0,0 km/h (0 Bft)
10.09.2012 06:00 12,5 C 22,6 C 13,9 C 12,7 C 12,7 C 0,2 C 88 % 89 % 0 % 1013,9 hPa 0,0 l/m 0,0 km/h (0 Bft) S-SO 157 0 min 0,0 UV-I 10,6 C 12,7 C 0,0 km/h (0 Bft)
10.09.2012 06:05 12,5 C 22,6 C 13,9 C 12,7 C 12,7 C 0,2 C 88 % 89 % 0 % 1013,9 hPa 0,0 l/m 0,0 km/h (0 Bft) S-SO 157 0 min 0,0 UV-I 10,6 C 12,7 C 0,0 km/h (0 Bft)
10.09.2012 06:10 12,4 C 22,5 C 13,8 C 12,7 C 12,7 C 0,3 C 88 % 89 % 0 % 1013,9 hPa 0,0 l/m 0,0 km/h (0 Bft) S-SO 157 0 min 0,0 UV-I 10,5 C 12,7 C 0,0 km/h (0 Bft)
10.09.2012 06:15 12,4 C 22,5 C 13,9 C 12,7 C 12,7 C 0,3 C 88 % 89 % 0 % 1013,9 hPa 0,0 l/m 0,0 km/h (0 Bft) S-SO 157 0 min 0,0 UV-I 10,5 C 12,7 C 0,0 km/h (0 Bft)
10.09.2012 06:20 12,5 C 22,5 C 13,8 C 12,7 C 12,7 C 0,2 C 88 % 89 % 0 % 1013,9 hPa 0,0 l/m 0,0 km/h (0 Bft) S-SO 157 0 min 0,0 UV-I 10,6 C 12,7 C 0,0 km/h (0 Bft)
10.09.2012 06:25 12,5 C 22,5 C 13,8 C 12,7 C 12,7 C 0,2 C 88 % 89 % 0 % 1013,6 hPa 0,0 l/m 0,0 km/h (0 Bft) S-SO 157 0 min 0,0 UV-I 10,6 C 12,7 C 0,0 km/h (0 Bft)
10.09.2012 06:30 12,4 C 22,5 C 13,8 C 12,7 C 12,7 C 0,3 C 88 % 89 % 0 % 1013,6 hPa 0,0 l/m 0,0 km/h (0 Bft) S 180 0 min 0,0 UV-I 10,5 C 12,7 C 0,0 km/h (0 Bft)
10.09.2012 06:35 12,4 C 22,5 C 13,9 C 12,7 C 12,7 C 0,3 C 89 % 89 % 0 % 1013,6 hPa 0,0 l/m 0,0 km/h (0 Bft) S-SO 157 0 min 0,0 UV-I 10,6 C 12,7 C 0,0 km/h (0 Bft)
10.09.2012 06:46 12,3 C 22,5 C 13,8 C 12,8 C 12,8 C 0,5 C 89 % 89 % 0 % 1013,8 hPa 0,0 l/m 0,0 km/h (0 Bft) N 0 0 min 0,0 UV-I 10,5 C 12,8 C 0,0 km/h (0 Bft)
10.09.2012 06:55 12,3 C 22,5 C 13,9 C 12,8 C 12,8 C 0,5 C 89 % 89 % 13 % 1013,8 hPa 0,0 l/m 0,0 km/h (0 Bft) S-SO 157 9 min 0,0 UV-I 10,5 C 12,8 C 0,0 km/h (0 Bft)
10.09.2012 07:00 12,3 C 22,5 C 13,9 C 12,9 C 12,9 C 0,6 C 89 % 89 % 16 % 1013,8 hPa 0,0 l/m 0,0 km/h (0 Bft) S-SO 157 5 min 0,0 UV-I 10,5 C 12,9 C 0,0 km/h (0 Bft)
10.09.2012 07:05 12,3 C 22,5 C 14,0 C 13,0 C 13,0 C 0,7 C 89 % 89 % 18 % 1014,0 hPa 0,0 l/m 0,0 km/h (0 Bft) S-SO 157 5 min 0,0 UV-I 10,5 C 13,0 C 0,0 km/h (0 Bft)
10.09.2012 07:10 12,4 C 22,5 C 14,0 C 13,4 C 13,4 C 1,0 C 89 % 89 % 26 % 1014,0 hPa 0,0 l/m 0,0 km/h (0 Bft) S-SO 157 5 min 0,0 UV-I 10,6 C 13,4 C 0,0 km/h (0 Bft)
10.09.2012 07:15 12,4 C 22,4 C 14,2 C 14,3 C 14,3 C 1,9 C 89 % 89 % 50 % 1014,0 hPa 0,0 l/m 0,0 km/h (0 Bft) S-SO 157 5 min 0,0 UV-I 10,6 C 14,3 C 0,0 km/h (0 Bft)
10.09.2012 07:20 12,5 C 22,4 C 14,3 C 14,8 C 14,8 C 2,3 C 90 % 89 % 61 % 1014,0 hPa 0,0 l/m 0,0 km/h (0 Bft) S-SO 157 5 min 0,0 UV-I 10,9 C 14,8 C 0,0 km/h (0 Bft)
10.09.2012 07:25 12,7 C 22,4 C 14,5 C 15,8 C 15,8 C 3,1 C 90 % 89 % 82 % 1014,3 hPa 0,0 l/m 0,0 km/h (0 Bft) S 180 5 min 0,0 UV-I 11,1 C 15,8 C 0,0 km/h (0 Bft)
10.09.2012 07:30 12,8 C 22,4 C 14,5 C 16,4 C 16,4 C 3,6 C 90 % 89 % 95 % 1014,3 hPa 0,0 l/m 0,0 km/h (0 Bft) S 180 5 min 0,0 UV-I 11,2 C 16,4 C 0,0 km/h (0 Bft)
10.09.2012 07:32 13,1 C 20,2 C 14,7 C 16,8 C 16,8 C 3,7 C 90 % 89 % 97 % 1014,3 hPa 0,0 l/m 0,0 km/h (0 Bft) S-SO 157 2 min 0,0 UV-I 11,5 C 16,8 C 0,0 km/h (0 Bft)
10.09.2012 07:37 13,2 C 20,2 C 14,8 C 16,8 C 16,8 C 3,6 C 91 % 89 % 95 % 1014,3 hPa 0,0 l/m 0,0 km/h (0 Bft) S-SO 157 5 min 0,0 UV-I 11,8 C 16,8 C 0,0 km/h (0 Bft)
10.09.2012 07:42 13,3 C 22,2 C 14,9 C 17,1 C 17,1 C 3,8 C 91 % 89 % 100 % 1014,2 hPa 0,0 l/m 0,0 km/h (0 Bft) S-SO 157 5 min 0,0 UV-I 11,9 C 17,1 C 0,0 km/h (0 Bft)
10.09.2012 07:47 13,5 C 22,2 C 15,0 C 17,5 C 17,5 C 4,0 C 91 % 89 % 100 % 1014,2 hPa 0,0 l/m 0,0 km/h (0 Bft) S-SO 157 5 min 0,0 UV-I 12,1 C 17,5 C 0,0 km/h (0 Bft)
10.09.2012 07:52 14,0 C 22,2 C 15,2 C 18,0 C 18,0 C 4,0 C 91 % 89 % 100 % 1014,2 hPa 0,0 l/m 0,0 km/h (0 Bft) S-SO 157 5 min 0,0 UV-I 12,6 C 18,0 C 0,0 km/h (0 Bft)
10.09.2012 07:57 14,4 C 22,2 C 15,3 C 18,8 C 18,8 C 4,4 C 91 % 89 % 100 % 1014,2 hPa 0,0 l/m 0,0 km/h (0 Bft) S 180 5 min 0,0 UV-I 12,9 C 18,8 C 0,0 km/h (0 Bft)
10.09.2012 08:02 14,5 C 22,2 C 15,3 C 19,7 C 19,7 C 5,2 C 90 % 88 % 100 % 1014,3 hPa 0,0 l/m 0,0 km/h (0 Bft) S 180 5 min 0,0 UV-I 12,9 C 19,7 C 0,0 km/h (0 Bft)
10.09.2012 08:07 14,6 C 22,2 C 15,3 C 20,1 C 20,1 C 5,5 C 90 % 88 % 100 % 1014,3 hPa 0,0 l/m 0,0 km/h (0 Bft) S 180 5 min 0,0 UV-I 13,0 C 20,1 C 0,0 km/h (0 Bft)
10.09.2012 08:12 14,7 C 22,2 C 15,3 C 19,6 C 19,6 C 4,9 C 88 % 88 % 100 % 1014,3 hPa 0,0 l/m 0,0 km/h (0 Bft) S-SO 157 5 min 0,0 UV-I 12,7 C 19,6 C 0,0 km/h (0 Bft)
10.09.2012 08:13 14,7 C 22,2 C 15,3 C 19,6 C 19,6 C 4,9 C 88 % 88 % 100 % 1014,3 hPa 0,0 l/m 0,0 km/h (0 Bft) S-SO 157 1 min 0,0 UV-I 12,7 C 19,6 C 0,0 km/h (0 Bft)
10.09.2012 08:20 14,8 C 22,2 C 15,2 C 19,6 C 19,6 C 4,8 C 88 % 88 % 100 % 1014,3 hPa 0,0 l/m 0,0 km/h (0 Bft) S 180 7 min 0,0 UV-I 12,8 C 19,6 C 0,0 km/h (0 Bft)
10.09.2012 08:22 15,1 C 22,2 C 15,5 C 20,9 C 20,9 C 5,8 C 87 % 88 % 100 % 1014,4 hPa 0,0 l/m 0,0 km/h (0 Bft) S-SO 157 2 min 0,0 UV-I 13,0 C 20,9 C 0,0 km/h (0 Bft)
10.09.2012 08:27 15,5 C 22,2 C 15,6 C 20,4 C 20,4 C 4,9 C 87 % 88 % 100 % 1014,4 hPa 0,0 l/m 0,0 km/h (0 Bft) S-SO 157 5 min 0,0 UV-I 13,3 C 20,4 C 0,0 km/h (0 Bft)
10.09.2012 08:31 16,0 C 22,2 C 15,7 C 21,3 C 21,3 C 5,3 C 86 % 88 % 100 % 1014,4 hPa 0,0 l/m 0,0 km/h (0 Bft) S-SO 157 4 min 0,0 UV-I 13,7 C 21,3 C 0,0 km/h (0 Bft)
10.09.2012 08:32 16,0 C 22,2 C 15,7 C 21,3 C 21,3 C 5,3 C 86 % 88 % 100 % 1014,4 hPa 0,0 l/m 0,0 km/h (0 Bft) S-SO 157 1 min 0,0 UV-I 13,7 C 21,3 C 0,0 km/h (0 Bft)
10.09.2012 08:37 16,3 C 22,2 C 15,9 C 22,5 C 22,5 C 6,2 C 85 % 88 % 100 % 1014,4 hPa 0,0 l/m 0,0 km/h (0 Bft) S-SO 157 5 min 0,1 UV-I 13,8 C 22,5 C 0,0 km/h (0 Bft)
10.09.2012 08:42 16,4 C 22,0 C 15,9 C 23,5 C 23,5 C 7,1 C 83 % 88 % 100 % 1014,6 hPa 0,0 l/m 0,0 km/h (0 Bft) S 180 5 min 0,1 UV-I 13,5 C 23,5 C 0,0 km/h (0 Bft)
10.09.2012 08:47 16,5 C 22,0 C 16,0 C 23,4 C 23,4 C 6,9 C 82 % 88 % 100 % 1014,6 hPa 0,0 l/m 0,0 km/h (0 Bft) S-SO 157 5 min 0,2 UV-I 13,4 C 23,4 C 0,0 km/h (0 Bft)
10.09.2012 08:52 16,7 C 22,0 C 16,0 C 23,0 C 23,0 C 6,3 C 82 % 88 % 100 % 1014,6 hPa 0,0 l/m 0,0 km/h (0 Bft) S 180 5 min 0,2 UV-I 13,6 C 23,0 C 0,0 km/h (0 Bft)
10.09.2012 08:55 16,7 C 22,0 C 16,0 C 23,0 C 23,0 C 6,3 C 82 % 88 % 100 % 1014,6 hPa 0,0 l/m 0,0 km/h (0 Bft) S 180 3 min 0,2 UV-I 13,6 C 23,0 C 0,0 km/h (0 Bft)
10.09.2012 09:00 16,7 C 21,9 C 16,3 C 22,2 C 22,2 C 5,5 C 81 % 88 % 100 % 1014,6 hPa 0,0 l/m 0,0 km/h (0 Bft) S 180 5 min 0,3 UV-I 13,4 C 22,2 C 0,0 km/h (0 Bft)
10.09.2012 09:05 17,1 C 21,9 C 16,4 C 21,9 C 21,9 C 4,8 C 81 % 87 % 100 % 1014,8 hPa 0,0 l/m 0,0 km/h (0 Bft) S 180 5 min 0,3 UV-I 13,8 C 21,9 C 0,0 km/h (0 Bft)
10.09.2012 09:10 17,5 C 21,9 C 16,5 C 21,8 C 21,8 C 4,3 C 81 % 87 % 100 % 1014,8 hPa 0,0 l/m 0,0 km/h (0 Bft) S-SO 157 5 min 0,4 UV-I 14,2 C 21,8 C 0,0 km/h (0 Bft)
10.09.2012 09:15 17,9 C 21,9 C 16,8 C 21,7 C 21,7 C 3,8 C 80 % 87 % 100 % 1014,8 hPa 0,0 l/m 0,0 km/h (0 Bft) S 180 5 min 0,5 UV-I 14,4 C 21,7 C 0,0 km/h (0 Bft)
10.09.2012 09:20 18,0 C 21,9 C 16,9 C 21,5 C 21,5 C 3,5 C 80 % 87 % 92 % 1014,8 hPa 0,0 l/m 0,0 km/h (0 Bft) S-SO 157 5 min 0,5 UV-I 14,5 C 21,5 C 0,0 km/h (0 Bft)
10.09.2012 09:25 18,3 C 21,9 C 17,1 C 21,5 C 21,5 C 3,2 C 79 % 87 % 84 % 1014,9 hPa 0,0 l/m 0,0 km/h (0 Bft) S 180 0 min 0,5 UV-I 14,6 C 21,5 C 0,0 km/h (0 Bft)
10.09.2012 09:30 18,4 C 21,9 C 17,2 C 21,7 C 21,7 C 3,3 C 80 % 87 % 87 % 1014,9 hPa 0,0 l/m 0,0 km/h (0 Bft) S 180 5 min 0,6 UV-I 14,9 C 21,7 C 0,0 km/h (0 Bft)
10.09.2012 09:35 18,6 C 21,9 C 17,3 C 21,6 C 21,6 C 3,0 C 80 % 87 % 79 % 1014,9 hPa 0,0 l/m 0,0 km/h (0 Bft) S 180 0 min 0,6 UV-I 15,1 C 21,6 C 0,0 km/h (0 Bft)
10.09.2012 09:40 18,8 C 21,9 C 17,5 C 21,8 C 21,8 C 3,0 C 79 % 87 % 79 % 1014,9 hPa 0,0 l/m 0,0 km/h (0 Bft) S 180 0 min 0,8 UV-I 15,1 C 21,8 C 0,0 km/h (0 Bft)
10.09.2012 09:45 19,0 C 21,9 C 17,9 C 21,9 C 21,9 C 2,9 C 79 % 87 % 76 % 1014,8 hPa 0,0 l/m 0,0 km/h (0 Bft) S 180 0 min 0,8 UV-I 15,3 C 21,9 C 0,0 km/h (0 Bft)
10.09.2012 09:47 19,1 C 22,0 C 18,0 C 22,0 C 22,0 C 2,9 C 79 % 87 % 76 % 1014,8 hPa 0,0 l/m 0,0 km/h (0 Bft) S 180 0 min 0,8 UV-I 15,4 C 22,0 C 0,0 km/h (0 Bft)
10.09.2012 09:52 19,5 C 22,0 C 18,2 C 22,1 C 22,1 C 2,6 C 79 % 87 % 68 % 1014,8 hPa 0,0 l/m 0,0 km/h (0 Bft) S 180 0 min 0,9 UV-I 15,8 C 22,1 C 0,0 km/h (0 Bft)
10.09.2012 09:55 19,5 C 22,0 C 18,2 C 22,1 C 22,1 C 2,6 C 79 % 87 % 68 % 1014,8 hPa 0,0 l/m 0,0 km/h (0 Bft) S 180 0 min 0,9 UV-I 15,8 C 22,1 C 0,0 km/h (0 Bft)
10.09.2012 10:00 19,6 C 22,0 C 18,4 C 22,3 C 22,3 C 2,7 C 78 % 87 % 71 % 1014,8 hPa 0,0 l/m 0,0 km/h (0 Bft) S-SO 157 0 min 0,9 UV-I 15,7 C 22,3 C 0,0 km/h (0 Bft)
10.09.2012 10:05 19,9 C 22,0 C 18,9 C 22,7 C 22,7 C 2,8 C 77 % 86 % 74 % 1014,9 hPa 0,0 l/m 0,0 km/h (0 Bft) S-SO 157 0 min 0,9 UV-I 15,7 C 22,7 C 0,0 km/h (0 Bft)
10.09.2012 10:10 20,1 C 22,0 C 19,1 C 22,9 C 22,9 C 2,8 C 76 % 86 % 74 % 1014,9 hPa 0,0 l/m 0,0 km/h (0 Bft) S-SO 157 0 min 0,9 UV-I 15,7 C 22,9 C 0,0 km/h (0 Bft)
10.09.2012 10:15 20,5 C 22,0 C 19,4 C 23,3 C 23,3 C 2,8 C 75 % 85 % 74 % 1014,9 hPa 0,0 l/m 0,0 km/h (0 Bft) S-SO 157 0 min 1,0 UV-I 15,9 C 23,3 C 0,0 km/h (0 Bft)
10.09.2012 10:20 20,7 C 22,0 C 19,7 C 23,7 C 23,7 C 3,0 C 74 % 85 % 79 % 1014,9 hPa 0,0 l/m 0,0 km/h (0 Bft) S-SO 157 0 min 1,1 UV-I 15,9 C 23,7 C 0,0 km/h (0 Bft)
10.09.2012 10:22 21,2 C 22,0 C 20,1 C 24,7 C 24,7 C 3,5 C 73 % 84 % 92 % 1015,1 hPa 0,0 l/m 0,0 km/h (0 Bft) S-SO 157 2 min 1,1 UV-I 16,2 C 24,7 C 0,0 km/h (0 Bft)
10.09.2012 10:27 21,6 C 22,0 C 20,3 C 25,0 C 25,0 C 3,4 C 71 % 83 % 89 % 1015,1 hPa 0,0 l/m 0,0 km/h (0 Bft) S 180 5 min 1,3 UV-I 16,1 C 25,0 C 0,0 km/h (0 Bft)
10.09.2012 10:32 22,1 C 22,0 C 20,7 C 25,2 C 25,2 C 3,1 C 70 % 82 % 82 % 1015,1 hPa 0,0 l/m 0,0 km/h (0 Bft) S-SW 202 0 min 1,2 UV-I 16,4 C 25,2 C 0,0 km/h (0 Bft)
10.09.2012 10:37 22,4 C 22,0 C 21,0 C 25,2 C 25,2 C 2,8 C 69 % 80 % 74 % 1015,1 hPa 0,0 l/m 0,0 km/h (0 Bft) S 180 0 min 1,2 UV-I 16,4 C 25,2 C 0,0 km/h (0 Bft)
10.09.2012 10:40 22,4 C 22,0 C 21,0 C 25,2 C 25,2 C 2,8 C 69 % 80 % 74 % 1015,1 hPa 0,0 l/m 0,0 km/h (0 Bft) S 180 0 min 1,2 UV-I 16,4 C 25,2 C 0,0 km/h (0 Bft)
10.09.2012 10:45 22,8 C 22,0 C 21,1 C 25,2 C 25,2 C 2,4 C 67 % 79 % 63 % 1014,9 hPa 0,0 l/m 0,0 km/h (0 Bft) S-SO 157 0 min 1,3 UV-I 16,3 C 25,2 C 0,0 km/h (0 Bft)
10.09.2012 10:50 23,1 C 22,0 C 21,2 C 25,3 C 25,3 C 2,2 C 66 % 78 % 58 % 1014,9 hPa 0,0 l/m 0,0 km/h (0 Bft) S 180 0 min 1,4 UV-I 16,4 C 25,3 C 0,0 km/h (0 Bft)
10.09.2012 10:52 23,3 C 22,0 C 21,5 C 25,5 C 25,5 C 2,2 C 65 % 77 % 58 % 1014,9 hPa 0,0 l/m 0,0 km/h (0 Bft) S 180 0 min 1,4 UV-I 16,3 C 25,5 C 0,0 km/h (0 Bft)
10.09.2012 10:57 23,5 C 22,0 C 21,7 C 25,6 C 25,6 C 2,1 C 63 % 77 % 55 % 1014,9 hPa 0,0 l/m 0,0 km/h (0 Bft) W-SW 247 0 min 1,4 UV-I 16,0 C 25,6 C 0,0 km/h (0 Bft)
10.09.2012 10:58 23,5 C 22,0 C 21,7 C 25,6 C 25,6 C 2,1 C 63 % 77 % 55 % 1014,9 hPa 0,0 l/m 0,0 km/h (0 Bft) W-SW 247 0 min 1,4 UV-I 16,0 C 25,6 C 0,0 km/h (0 Bft)
10.09.2012 11:00 23,5 C 22,0 C 21,7 C 25,6 C 25,6 C 2,1 C 63 % 77 % 55 % 1014,9 hPa 0,0 l/m 0,0 km/h (0 Bft) W-SW 247 0 min 1,4 UV-I 16,0 C 25,6 C 0,0 km/h (0 Bft)
10.09.2012 11:05 23,9 C 22,0 C 21,9 C 25,8 C 25,8 C 1,9 C 62 % 75 % 50 % 1015,3 hPa 0,0 l/m 0,0 km/h (0 Bft) SW 225 0 min 1,5 UV-I 16,2 C 25,8 C 0,0 km/h (0 Bft)
10.09.2012 11:10 24,0 C 22,0 C 22,1 C 25,9 C 25,9 C 1,9 C 62 % 74 % 50 % 1015,3 hPa 0,0 l/m 0,0 km/h (0 Bft) S-SO 157 0 min 1,5 UV-I 16,3 C 25,9 C 0,0 km/h (0 Bft)
10.09.2012 11:15 24,3 C 22,0 C 22,8 C 26,1 C 26,1 C 1,8 C 60 % 73 % 47 % 1015,3 hPa 0,0 l/m 0,0 km/h (0 Bft) W-SW 247 0 min 1,6 UV-I 16,0 C 26,1 C 0,0 km/h (0 Bft)
10.09.2012 11:20 24,4 C 22,0 C 23,5 C 26,3 C 26,3 C 1,9 C 59 % 71 % 50 % 1015,3 hPa 0,0 l/m 0,0 km/h (0 Bft) W 270 0 min 1,6 UV-I 15,9 C 26,3 C 0,0 km/h (0 Bft)
10.09.2012 11:25 24,8 C 22,0 C 23,5 C 26,5 C 26,5 C 1,7 C 57 % 69 % 45 % 1015,0 hPa 0,0 l/m 0,0 km/h (0 Bft) S-SO 157 0 min 1,7 UV-I 15,7 C 26,5 C 0,0 km/h (0 Bft)
10.09.2012 11:27 25,1 C 22,0 C 23,4 C 26,7 C 26,7 C 1,6 C 56 % 67 % 42 % 1015,0 hPa 0,0 l/m 0,0 km/h (0 Bft) W-SW 247 0 min 1,7 UV-I 15,7 C 26,7 C 0,0 km/h (0 Bft)
10.09.2012 11:32 25,3 C 22,0 C 24,1 C 27,0 C 27,0 C 1,7 C 53 % 65 % 45 % 1015,0 hPa 0,0 l/m 0,0 km/h (0 Bft) W-SW 247 0 min 1,8 UV-I 15,0 C 27,0 C 0,0 km/h (0 Bft)
10.09.2012 11:34 25,3 C 22,0 C 24,1 C 27,0 C 27,0 C 1,7 C 53 % 65 % 45 % 1015,0 hPa 0,0 l/m 0,0 km/h (0 Bft) W-SW 247 0 min 1,8 UV-I 15,0 C 27,0 C 0,0 km/h (0 Bft)
10.09.2012 11:40 25,5 C 22,0 C 25,1 C 27,0 C 27,0 C 1,5 C 53 % 63 % 39 % 1015,0 hPa 0,0 l/m 0,0 km/h (0 Bft) W 270 0 min 1,9 UV-I 15,2 C 27,0 C 0,0 km/h (0 Bft)
10.09.2012 11:45 25,7 C 22,0 C 26,5 C 27,1 C 27,1 C 1,4 C 50 % 59 % 37 % 1015,2 hPa 0,0 l/m 0,0 km/h (0 Bft) W-SW 247 0 min 1,8 UV-I 14,5 C 27,1 C 0,0 km/h (0 Bft)
10.09.2012 11:50 25,8 C 22,0 C 27,1 C 27,1 C 27,1 C 1,3 C 50 % 56 % 34 % 1015,2 hPa 0,0 l/m 0,0 km/h (0 Bft) W-SW 247 0 min 1,9 UV-I 14,6 C 27,1 C 0,0 km/h (0 Bft)
10.09.2012 11:55 26,0 C 22,0 C 26,8 C 27,3 C 27,3 C 1,3 C 50 % 55 % 34 % 1015,2 hPa 0,0 l/m 0,0 km/h (0 Bft) W-SW 247 0 min 1,9 UV-I 14,8 C 27,3 C 0,0 km/h (0 Bft)
10.09.2012 12:00 26,2 C 22,0 C 26,3 C 27,3 C 27,3 C 1,1 C 48 % 55 % 29 % 1015,2 hPa 0,0 l/m 0,0 km/h (0 Bft) W 270 0 min 1,9 UV-I 14,3 C 27,3 C 0,0 km/h (0 Bft)
10.09.2012 12:05 26,3 C 22,0 C 26,1 C 27,5 C 27,5 C 1,2 C 49 % 56 % 32 % 1015,0 hPa 0,0 l/m 0,0 km/h (0 Bft) W-SW 247 0 min 1,9 UV-I 14,7 C 27,5 C 0,0 km/h (0 Bft)
10.09.2012 12:07 26,4 C 22,0 C 26,0 C 27,6 C 27,6 C 1,2 C 47 % 55 % 32 % 1015,0 hPa 0,0 l/m 0,0 km/h (0 Bft) W 270 0 min 1,9 UV-I 14,2 C 27,6 C 0,0 km/h (0 Bft)
10.09.2012 12:12 26,6 C 22,0 C 26,8 C 28,9 C 28,9 C 2,3 C 46 % 53 % 61 % 1015,0 hPa 0,0 l/m 0,0 km/h (0 Bft) N 360 0 min 2,0 UV-I 14,0 C 28,9 C 0,0 km/h (0 Bft)
10.09.2012 12:15 26,6 C 22,0 C 26,8 C 28,9 C 28,9 C 2,3 C 46 % 53 % 61 % 1015,0 hPa 0,0 l/m 0,0 km/h (0 Bft) N 360 0 min 2,0 UV-I 14,0 C 28,9 C 0,0 km/h (0 Bft)
10.09.2012 12:20 26,6 C 22,0 C 27,5 C 30,0 C 30,0 C 3,4 C 44 % 51 % 89 % 1015,0 hPa 0,0 l/m 0,0 km/h (0 Bft) W-NW 292 5 min 2,0 UV-I 13,3 C 30,0 C 0,0 km/h (0 Bft)
10.09.2012 12:25 26,9 C 22,0 C 26,8 C 31,0 C 31,0 C 4,1 C 43 % 50 % 100 % 1014,9 hPa 0,0 l/m 0,0 km/h (0 Bft) W-NW 292 5 min 2,1 UV-I 13,2 C 31,0 C 0,0 km/h (0 Bft)
10.09.2012 12:30 26,9 C 22,0 C 26,5 C 31,1 C 31,1 C 4,2 C 42 % 50 % 100 % 1014,9 hPa 0,0 l/m 1,3 km/h (1 Bft) S 180 5 min 2,1 UV-I 12,9 C 31,1 C 15,3 km/h (3 Bft)
10.09.2012 12:32 27,2 C 22,0 C 26,4 C 31,4 C 31,4 C 4,2 C 43 % 50 % 100 % 1014,9 hPa 0,0 l/m 4,3 km/h (1 Bft) W-NW 292 2 min 2,1 UV-I 13,5 C 31,4 C 4,3 km/h (1 Bft)
10.09.2012 12:37 27,6 C 22,0 C 26,3 C 31,7 C 31,7 C 4,1 C 44 % 51 % 100 % 1014,9 hPa 0,0 l/m 5,5 km/h (1 Bft) W-SW 247 5 min 2,2 UV-I 14,2 C 31,7 C 5,8 km/h (2 Bft)
10.09.2012 12:42 28,0 C 22,0 C 26,2 C 31,7 C 31,7 C 3,7 C 43 % 50 % 97 % 1015,0 hPa 0,0 l/m 6,0 km/h (2 Bft) W-SW 247 5 min 3,2 UV-I 14,2 C 31,7 C 13,0 km/h (3 Bft)
10.09.2012 12:47 28,1 C 22,0 C 26,1 C 31,7 C 31,7 C 3,6 C 41 % 50 % 95 % 1015,0 hPa 0,0 l/m 6,9 km/h (2 Bft) W-SW 247 5 min 3,8 UV-I 13,6 C 31,7 C 6,4 km/h (2 Bft)
10.09.2012 12:52 28,4 C 22,0 C 26,4 C 31,8 C 31,8 C 3,4 C 41 % 51 % 89 % 1015,0 hPa 0,0 l/m 6,4 km/h (2 Bft) N-NW 337 5 min 3,9 UV-I 13,9 C 31,8 C 12,1 km/h (2 Bft)
10.09.2012 12:57 28,6 C 22,0 C 26,6 C 32,1 C 32,1 C 3,5 C 41 % 50 % 92 % 1015,0 hPa 0,0 l/m 5,6 km/h (1 Bft) W-SW 247 5 min 4,0 UV-I 14,0 C 32,1 C 9,3 km/h (2 Bft)
10.09.2012 12:58 28,6 C 22,0 C 26,6 C 32,1 C 32,1 C 3,5 C 41 % 50 % 92 % 1015,0 hPa 0,0 l/m 5,6 km/h (1 Bft) W-SW 247 1 min 4,0 UV-I 14,0 C 32,1 C 9,3 km/h (2 Bft)
10.09.2012 13:00 28,6 C 22,0 C 26,6 C 32,1 C 32,1 C 3,5 C 41 % 50 % 92 % 1015,0 hPa 0,0 l/m 5,6 km/h (1 Bft) W-SW 247 2 min 4,0 UV-I 14,0 C 32,1 C 9,3 km/h (2 Bft)
10.09.2012 13:05 28,6 C 22,0 C 26,5 C 32,4 C 32,4 C 3,8 C 40 % 50 % 100 % 1014,8 hPa 0,0 l/m 5,6 km/h (1 Bft) W 270 5 min 4,0 UV-I 13,7 C 32,4 C 8,7 km/h (2 Bft)
10.09.2012 13:10 28,6 C 22,0 C 26,5 C 32,5 C 32,5 C 3,9 C 41 % 50 % 100 % 1014,8 hPa 0,0 l/m 5,5 km/h (1 Bft) W 270 5 min 4,1 UV-I 14,0 C 32,5 C 8,7 km/h (2 Bft)
10.09.2012 13:15 28,8 C 22,0 C 26,4 C 32,5 C 32,5 C 3,7 C 39 % 49 % 97 % 1014,8 hPa 0,0 l/m 6,0 km/h (2 Bft) SW 225 5 min 4,1 UV-I 13,4 C 32,5 C 3,9 km/h (1 Bft)
10.09.2012 13:20 29,1 C 22,0 C 26,2 C 32,8 C 32,8 C 3,7 C 39 % 49 % 97 % 1014,8 hPa 0,0 l/m 4,8 km/h (1 Bft) S-SW 202 5 min 4,2 UV-I 13,7 C 32,8 C 3,9 km/h (1 Bft)
10.09.2012 13:25 29,3 C 22,0 C 26,3 C 33,2 C 33,2 C 3,9 C 39 % 49 % 100 % 1014,8 hPa 0,0 l/m 3,2 km/h (1 Bft) S-SO 157 5 min 4,1 UV-I 13,9 C 33,2 C 7,7 km/h (2 Bft)
10.09.2012 13:27 29,4 C 22,0 C 26,3 C 33,4 C 33,4 C 4,0 C 38 % 49 % 100 % 1014,8 hPa 0,0 l/m 3,7 km/h (1 Bft) SW 225 2 min 4,1 UV-I 13,6 C 33,4 C 4,0 km/h (1 Bft)
10.09.2012 13:32 29,2 C 22,0 C 26,5 C 33,5 C 33,5 C 4,3 C 38 % 49 % 100 % 1014,8 hPa 0,0 l/m 4,2 km/h (1 Bft) SO 135 5 min 4,1 UV-I 13,4 C 33,5 C 5,1 km/h (1 Bft)
10.09.2012 13:37 29,2 C 22,0 C 26,8 C 33,6 C 33,6 C 4,4 C 38 % 49 % 100 % 1014,8 hPa 0,0 l/m 4,2 km/h (1 Bft) W 270 5 min 4,1 UV-I 13,4 C 33,6 C 8,4 km/h (2 Bft)
10.09.2012 13:41 29,3 C 22,0 C 27,1 C 33,9 C 33,9 C 4,6 C 39 % 48 % 100 % 1014,9 hPa 0,0 l/m 3,1 km/h (1 Bft) SW 225 4 min 4,0 UV-I 13,9 C 33,9 C 0,0 km/h (0 Bft)
10.09.2012 13:45 29,3 C 22,0 C 27,1 C 33,9 C 33,9 C 4,6 C 39 % 48 % 100 % 1014,9 hPa 0,0 l/m 3,1 km/h (1 Bft) SW 225 4 min 4,0 UV-I 13,9 C 33,9 C 0,0 km/h (0 Bft)
10.09.2012 13:50 29,3 C 22,0 C 27,0 C 34,4 C 34,4 C 5,1 C 39 % 47 % 100 % 1014,9 hPa 0,0 l/m 2,1 km/h (1 Bft) S-SO 157 5 min 3,9 UV-I 13,9 C 34,4 C 2,6 km/h (1 Bft)
10.09.2012 13:55 29,5 C 22,0 C 27,1 C 34,5 C 34,5 C 5,0 C 38 % 48 % 100 % 1014,9 hPa 0,0 l/m 1,9 km/h (1 Bft) O-SO 112 5 min 3,3 UV-I 13,7 C 34,5 C 0,0 km/h (0 Bft)
10.09.2012 14:00 29,5 C 22,0 C 27,1 C 34,7 C 34,7 C 5,2 C 37 % 47 % 100 % 1014,9 hPa 0,0 l/m 3,1 km/h (1 Bft) O-NO 67 5 min 3,1 UV-I 13,3 C 34,7 C 2,1 km/h (1 Bft)
10.09.2012 14:05 29,4 C 22,0 C 27,5 C 34,2 C 34,2 C 4,8 C 36 % 45 % 100 % 1015,2 hPa 0,0 l/m 5,8 km/h (2 Bft) W 270 5 min 2,8 UV-I 12,7 C 34,2 C 16,7 km/h (3 Bft)
10.09.2012 14:10 29,4 C 22,0 C 27,5 C 33,9 C 33,9 C 4,5 C 37 % 46 % 100 % 1015,2 hPa 0,0 l/m 6,1 km/h (2 Bft) NW 315 5 min 3,5 UV-I 13,2 C 33,9 C 1,6 km/h (1 Bft)
10.09.2012 14:15 29,5 C 22,0 C 27,5 C 34,5 C 34,5 C 5,0 C 38 % 47 % 100 % 1015,2 hPa 0,0 l/m 2,9 km/h (1 Bft) W-SW 247 5 min 3,6 UV-I 13,7 C 34,5 C 3,1 km/h (1 Bft)
10.09.2012 14:20 29,6 C 22,0 C 27,4 C 34,8 C 34,8 C 5,2 C 37 % 46 % 100 % 1015,2 hPa 0,0 l/m 1,8 km/h (1 Bft) W-SW 247 5 min 3,6 UV-I 13,3 C 34,8 C 2,1 km/h (1 Bft)
10.09.2012 14:25 30,1 C 22,0 C 27,6 C 35,1 C 35,1 C 5,0 C 37 % 46 % 100 % 1014,5 hPa 0,0 l/m 2,6 km/h (1 Bft) S-SO 157 5 min 3,3 UV-I 13,8 C 35,1 C 2,6 km/h (1 Bft)
10.09.2012 14:30 30,3 C 22,0 C 27,6 C 35,4 C 35,4 C 5,1 C 38 % 46 % 100 % 1014,5 hPa 0,0 l/m 2,1 km/h (1 Bft) S-SW 202 5 min 3,3 UV-I 14,4 C 35,4 C 2,9 km/h (1 Bft)
10.09.2012 14:35 30,7 C 22,0 C 27,7 C 35,5 C 35,5 C 4,8 C 36 % 44 % 100 % 1014,5 hPa 0,0 l/m 1,6 km/h (1 Bft) SO 135 5 min 2,6 UV-I 13,9 C 35,5 C 0,0 km/h (0 Bft)
10.09.2012 14:40 30,8 C 22,0 C 27,7 C 35,7 C 35,7 C 4,9 C 35 % 44 % 100 % 1014,5 hPa 0,0 l/m 1,6 km/h (1 Bft) S-SO 157 5 min 2,5 UV-I 13,5 C 35,7 C 3,7 km/h (1 Bft)
10.09.2012 14:45 31,1 C 22,0 C 27,8 C 35,9 C 35,9 C 4,8 C 34 % 46 % 100 % 1014,3 hPa 0,0 l/m 1,9 km/h (1 Bft) S-SW 202 5 min 3,0 UV-I 13,4 C 35,9 C 6,1 km/h (2 Bft)
10.09.2012 14:50 31,3 C 22,0 C 27,8 C 35,6 C 35,6 C 4,3 C 34 % 44 % 100 % 1014,3 hPa 0,0 l/m 2,7 km/h (1 Bft) SW 225 5 min 3,0 UV-I 13,5 C 35,6 C 2,1 km/h (1 Bft)
10.09.2012 14:55 31,3 C 22,0 C 28,0 C 35,7 C 35,7 C 4,4 C 34 % 45 % 100 % 1014,3 hPa 0,0 l/m 2,9 km/h (1 Bft) W 270 5 min 3,1 UV-I 13,5 C 35,7 C 0,0 km/h (0 Bft)
10.09.2012 15:00 31,4 C 22,0 C 28,1 C 36,3 C 36,3 C 4,9 C 35 % 45 % 100 % 1014,3 hPa 0,0 l/m 1,9 km/h (1 Bft) S-SO 157 5 min 3,1 UV-I 14,1 C 36,3 C 0,0 km/h (0 Bft)
10.09.2012 15:05 31,5 C 22,0 C 28,1 C 36,6 C 36,6 C 5,1 C 35 % 45 % 100 % 1013,8 hPa 0,0 l/m 1,4 km/h (1 Bft) W-SW 247 5 min 3,0 UV-I 14,2 C 36,6 C 6,6 km/h (2 Bft)
10.09.2012 15:10 31,7 C 22,0 C 28,2 C 36,6 C 36,6 C 4,9 C 35 % 45 % 100 % 1013,8 hPa 0,0 l/m 1,8 km/h (1 Bft) S-SW 202 5 min 2,9 UV-I 14,3 C 36,6 C 2,3 km/h (1 Bft)
10.09.2012 15:15 31,5 C 22,0 C 27,8 C 35,6 C 35,6 C 4,1 C 35 % 46 % 100 % 1013,8 hPa 0,0 l/m 1,8 km/h (1 Bft) W 270 5 min 2,4 UV-I 14,2 C 35,6 C 3,1 km/h (1 Bft)
10.09.2012 15:20 31,3 C 22,0 C 27,6 C 34,2 C 34,2 C 2,9 C 35 % 45 % 76 % 1013,8 hPa 0,0 l/m 1,8 km/h (1 Bft) S 180 0 min 1,8 UV-I 14,0 C 34,2 C 2,1 km/h (1 Bft)
10.09.2012 15:25 31,2 C 22,0 C 27,6 C 33,8 C 33,8 C 2,6 C 35 % 46 % 68 % 1014,1 hPa 0,0 l/m 1,4 km/h (1 Bft) W-SW 247 0 min 2,0 UV-I 13,9 C 33,8 C 0,0 km/h (0 Bft)
10.09.2012 15:30 31,2 C 22,3 C 27,6 C 34,0 C 34,0 C 2,8 C 35 % 46 % 74 % 1014,1 hPa 0,0 l/m 1,1 km/h (1 Bft) O-NO 67 0 min 2,0 UV-I 13,9 C 34,0 C 1,6 km/h (1 Bft)
10.09.2012 15:35 31,1 C 22,3 C 27,4 C 33,9 C 33,9 C 2,8 C 35 % 47 % 74 % 1014,1 hPa 0,0 l/m 0,6 km/h (0 Bft) NO 45 0 min 1,8 UV-I 13,8 C 33,9 C 0,0 km/h (0 Bft)
10.09.2012 15:40 30,9 C 22,3 C 27,5 C 34,3 C 34,3 C 3,4 C 36 % 48 % 89 % 1014,1 hPa 0,0 l/m 0,5 km/h (0 Bft) O 90 5 min 1,9 UV-I 14,1 C 34,3 C 0,0 km/h (0 Bft)
10.09.2012 15:45 30,8 C 22,3 C 27,7 C 35,1 C 35,1 C 4,3 C 36 % 47 % 100 % 1014,1 hPa 0,0 l/m 0,5 km/h (0 Bft) S 180 5 min 1,9 UV-I 14,0 C 35,1 C 2,1 km/h (1 Bft)
10.09.2012 15:50 31,2 C 22,3 C 27,9 C 36,0 C 36,0 C 4,8 C 35 % 47 % 100 % 1014,1 hPa 0,0 l/m 0,8 km/h (0 Bft) W 270 5 min 2,1 UV-I 13,9 C 36,0 C 1,8 km/h (1 Bft)
10.09.2012 15:55 31,5 C 22,3 C 28,0 C 36,7 C 36,7 C 5,2 C 33 % 45 % 100 % 1014,1 hPa 0,0 l/m 1,1 km/h (1 Bft) W 270 5 min 1,9 UV-I 13,2 C 36,7 C 1,6 km/h (1 Bft)
10.09.2012 16:00 31,7 C 22,4 C 28,1 C 36,8 C 36,8 C 5,1 C 33 % 44 % 100 % 1014,1 hPa 0,0 l/m 1,9 km/h (1 Bft) W-NW 292 5 min 1,8 UV-I 13,4 C 36,8 C 6,6 km/h (2 Bft)
10.09.2012 16:05 32,1 C 22,4 C 28,4 C 36,0 C 36,0 C 3,9 C 29 % 41 % 100 % 1014,1 hPa 0,0 l/m 4,8 km/h (1 Bft) S 180 5 min 1,7 UV-I 11,8 C 36,0 C 6,8 km/h (2 Bft)
10.09.2012 16:10 32,2 C 22,5 C 28,4 C 35,4 C 35,4 C 3,2 C 29 % 40 % 84 % 1014,1 hPa 0,0 l/m 5,8 km/h (2 Bft) W-SW 247 0 min 1,6 UV-I 11,9 C 35,4 C 4,8 km/h (1 Bft)
10.09.2012 16:15 32,4 C 22,5 C 28,5 C 35,1 C 35,1 C 2,7 C 28 % 39 % 71 % 1014,1 hPa 0,0 l/m 5,0 km/h (1 Bft) W-SW 247 0 min 1,5 UV-I 11,5 C 35,1 C 8,2 km/h (2 Bft)
10.09.2012 16:20 32,5 C 22,5 C 28,4 C 34,8 C 34,8 C 2,3 C 28 % 39 % 61 % 1014,1 hPa 0,0 l/m 5,1 km/h (1 Bft) SW 225 0 min 1,3 UV-I 11,6 C 34,8 C 8,5 km/h (2 Bft)
10.09.2012 16:25 32,6 C 22,5 C 28,4 C 34,6 C 34,6 C 2,0 C 28 % 39 % 53 % 1014,0 hPa 0,0 l/m 5,5 km/h (1 Bft) S 180 0 min 1,2 UV-I 11,7 C 34,6 C 7,2 km/h (2 Bft)
10.09.2012 16:30 32,6 C 22,5 C 28,4 C 34,5 C 34,5 C 1,9 C 28 % 39 % 50 % 1014,0 hPa 0,0 l/m 5,0 km/h (1 Bft) W-SW 247 0 min 1,1 UV-I 11,7 C 34,5 C 3,1 km/h (1 Bft)
10.09.2012 16:35 32,7 C 22,5 C 28,4 C 34,5 C 34,5 C 1,8 C 28 % 39 % 47 % 1014,0 hPa 0,0 l/m 3,9 km/h (1 Bft) W 270 0 min 0,9 UV-I 11,8 C 34,5 C 3,9 km/h (1 Bft)
10.09.2012 16:40 32,5 C 22,5 C 28,5 C 34,4 C 34,4 C 1,9 C 28 % 39 % 50 % 1014,0 hPa 0,0 l/m 4,0 km/h (1 Bft) W-SW 247 0 min 0,8 UV-I 11,6 C 34,4 C 5,3 km/h (1 Bft)
10.09.2012 16:45 31,9 C 22,5 C 28,5 C 34,4 C 34,4 C 2,5 C 28 % 40 % 66 % 1013,7 hPa 0,0 l/m 4,7 km/h (1 Bft) S 180 0 min 0,8 UV-I 11,1 C 34,4 C 2,7 km/h (1 Bft)
10.09.2012 16:50 31,6 C 22,7 C 28,5 C 34,4 C 34,4 C 2,8 C 29 % 39 % 74 % 1013,7 hPa 0,0 l/m 4,5 km/h (1 Bft) SW 225 0 min 0,8 UV-I 11,4 C 34,4 C 3,2 km/h (1 Bft)
10.09.2012 16:55 31,3 C 22,7 C 28,5 C 34,4 C 34,4 C 3,1 C 30 % 40 % 82 % 1013,7 hPa 0,0 l/m 4,0 km/h (1 Bft) W 270 0 min 0,7 UV-I 11,6 C 34,4 C 4,5 km/h (1 Bft)
10.09.2012 17:00 31,2 C 22,7 C 28,4 C 34,5 C 34,5 C 3,3 C 31 % 39 % 87 % 1013,7 hPa 0,0 l/m 3,2 km/h (1 Bft) SW 225 5 min 0,7 UV-I 12,0 C 34,5 C 3,5 km/h (1 Bft)
10.09.2012 17:05 31,1 C 22,8 C 28,4 C 34,6 C 34,6 C 3,5 C 31 % 40 % 92 % 1013,8 hPa 0,0 l/m 3,2 km/h (1 Bft) W-SW 247 5 min 0,6 UV-I 11,9 C 34,6 C 5,8 km/h (2 Bft)
10.09.2012 17:10 31,0 C 22,8 C 28,4 C 34,6 C 34,6 C 3,6 C 29 % 40 % 95 % 1013,8 hPa 0,0 l/m 3,5 km/h (1 Bft) S 180 5 min 0,5 UV-I 10,9 C 34,6 C 4,8 km/h (1 Bft)
10.09.2012 17:15 30,9 C 22,8 C 28,4 C 34,4 C 34,4 C 3,5 C 28 % 38 % 92 % 1013,8 hPa 0,0 l/m 4,5 km/h (1 Bft) SW 225 5 min 0,5 UV-I 10,2 C 34,4 C 6,1 km/h (2 Bft)
10.09.2012 17:20 30,9 C 22,8 C 28,4 C 34,3 C 34,3 C 3,4 C 29 % 38 % 89 % 1013,8 hPa 0,0 l/m 4,0 km/h (1 Bft) W-SW 247 5 min 0,4 UV-I 10,8 C 34,3 C 4,5 km/h (1 Bft)
10.09.2012 17:25 30,6 C 22,8 C 28,6 C 34,1 C 34,1 C 3,5 C 29 % 38 % 92 % 1013,8 hPa 0,0 l/m 3,5 km/h (1 Bft) W-SW 247 5 min 0,4 UV-I 10,5 C 34,1 C 4,8 km/h (1 Bft)
10.09.2012 17:30 30,7 C 22,8 C 28,4 C 33,8 C 33,8 C 3,1 C 28 % 37 % 82 % 1013,8 hPa 0,0 l/m 3,7 km/h (1 Bft) SW 225 0 min 0,3 UV-I 10,1 C 33,8 C 4,8 km/h (1 Bft)
10.09.2012 17:35 30,5 C 22,9 C 28,1 C 33,7 C 33,7 C 3,2 C 29 % 38 % 84 % 1013,8 hPa 0,0 l/m 3,2 km/h (1 Bft) NW 315 5 min 0,3 UV-I 10,4 C 33,7 C 1,8 km/h (1 Bft)
10.09.2012 17:40 30,5 C 22,9 C 27,9 C 33,3 C 33,3 C 2,8 C 29 % 38 % 74 % 1013,8 hPa 0,0 l/m 2,6 km/h (1 Bft) S 180 0 min 0,2 UV-I 10,4 C 33,3 C 3,2 km/h (1 Bft)
10.09.2012 17:45 30,3 C 22,9 C 27,6 C 32,4 C 32,4 C 2,1 C 29 % 38 % 55 % 1014,6 hPa 0,0 l/m 2,3 km/h (1 Bft) O-NO 67 0 min 0,2 UV-I 10,3 C 32,4 C 1,8 km/h (1 Bft)
10.09.2012 17:50 30,1 C 22,9 C 27,5 C 32,1 C 32,1 C 2,0 C 30 % 40 % 53 % 1014,6 hPa 0,0 l/m 1,8 km/h (1 Bft) S-SW 202 0 min 0,1 UV-I 10,6 C 32,1 C 1,9 km/h (1 Bft)
10.09.2012 17:55 29,8 C 22,9 C 27,1 C 32,0 C 32,0 C 2,2 C 30 % 40 % 58 % 1014,6 hPa 0,0 l/m 1,6 km/h (1 Bft) W-SW 247 0 min 0,1 UV-I 10,3 C 32,0 C 4,8 km/h (1 Bft)
10.09.2012 18:00 29,7 C 22,9 C 27,1 C 31,5 C 31,5 C 1,8 C 30 % 40 % 47 % 1014,6 hPa 0,0 l/m 2,3 km/h (1 Bft) W-SW 247 0 min 0,1 UV-I 10,3 C 31,5 C 2,9 km/h (1 Bft)
10.09.2012 18:05 29,5 C 23,0 C 26,8 C 31,1 C 31,1 C 1,6 C 33 % 42 % 42 % 1013,9 hPa 0,0 l/m 1,9 km/h (1 Bft) SW 225 0 min 0,0 UV-I 11,5 C 31,1 C 1,6 km/h (1 Bft)
10.09.2012 18:10 29,3 C 23,0 C 26,5 C 30,7 C 30,7 C 1,4 C 34 % 43 % 37 % 1013,9 hPa 0,0 l/m 1,1 km/h (1 Bft) W 270 0 min 0,0 UV-I 11,8 C 30,7 C 0,0 km/h (0 Bft)
10.09.2012 18:15 28,9 C 23,1 C 26,1 C 29,6 C 29,6 C 0,7 C 35 % 44 % 18 % 1013,9 hPa 0,0 l/m 0,2 km/h (0 Bft) O-NO 67 0 min 0,0 UV-I 11,9 C 29,6 C 0,0 km/h (0 Bft)
10.09.2012 18:20 28,4 C 23,1 C 25,7 C 28,8 C 28,8 C 0,4 C 35 % 47 % 11 % 1013,9 hPa 0,0 l/m 0,0 km/h (0 Bft) O 90 0 min 0,0 UV-I 11,4 C 28,8 C 0,0 km/h (0 Bft)
10.09.2012 18:25 27,9 C 23,1 C 25,2 C 27,9 C 27,8 C 0,0 C 38 % 47 % 0 % 1014,1 hPa 0,0 l/m 0,0 km/h (0 Bft) O-NO 67 0 min 0,0 UV-I 12,2 C 27,8 C 0,0 km/h (0 Bft)
10.09.2012 18:30 27,6 C 23,1 C 25,1 C 27,6 C 27,6 C 0,0 C 38 % 50 % 0 % 1014,1 hPa 0,0 l/m 0,0 km/h (0 Bft) O-NO 67 0 min 0,0 UV-I 12,0 C 27,6 C 0,0 km/h (0 Bft)
10.09.2012 18:35 27,1 C 23,1 C 24,7 C 27,3 C 27,3 C 0,2 C 40 % 52 % 5 % 1014,1 hPa 0,0 l/m 0,0 km/h (0 Bft) O-NO 67 0 min 0,0 UV-I 12,3 C 27,3 C 0,0 km/h (0 Bft)
10.09.2012 18:37 26,8 C 23,1 C 24,3 C 26,9 C 26,9 C 0,1 C 42 % 53 % 3 % 1014,1 hPa 0,0 l/m 0,0 km/h (0 Bft) O-NO 67 0 min 0,0 UV-I 12,8 C 26,9 C 0,0 km/h (0 Bft)
10.09.2012 18:42 26,3 C 23,1 C 24,0 C 26,3 C 26,3 C 0,0 C 43 % 54 % 0 % 1013,9 hPa 0,0 l/m 0,0 km/h (0 Bft) O 90 0 min 0,0 UV-I 12,7 C 26,3 C 0,0 km/h (0 Bft)
10.09.2012 18:47 26,0 C 23,1 C 23,9 C 26,0 C 25,9 C 0,0 C 43 % 54 % 0 % 1013,9 hPa 0,0 l/m 0,0 km/h (0 Bft) O 90 0 min 0,0 UV-I 12,4 C 25,9 C 0,0 km/h (0 Bft)
10.09.2012 18:52 25,5 C 23,2 C 23,7 C 25,4 C 25,2 C 0,0 C 44 % 54 % 0 % 1013,9 hPa 0,0 l/m 0,0 km/h (0 Bft) O 90 0 min 0,0 UV-I 12,3 C 25,2 C 0,0 km/h (0 Bft)
10.09.2012 18:55 25,5 C 23,2 C 23,7 C 25,4 C 25,2 C 0,0 C 44 % 54 % 0 % 1013,9 hPa 0,0 l/m 0,0 km/h (0 Bft) O 90 0 min 0,0 UV-I 12,3 C 25,2 C 0,0 km/h (0 Bft)
10.09.2012 19:00 25,3 C 23,2 C 23,5 C 25,1 C 24,8 C 0,0 C 46 % 56 % 0 % 1013,9 hPa 0,0 l/m 0,0 km/h (0 Bft) O-NO 67 0 min 0,0 UV-I 12,8 C 24,8 C 0,0 km/h (0 Bft)
10.09.2012 19:05 24,9 C 23,2 C 23,2 C 24,8 C 24,7 C 0,0 C 49 % 57 % 0 % 1013,9 hPa 0,0 l/m 0,0 km/h (0 Bft) O-SO 112 0 min 0,0 UV-I 13,4 C 24,7 C 0,0 km/h (0 Bft)
10.09.2012 19:10 24,7 C 23,2 C 23,1 C 24,7 C 24,7 C 0,0 C 49 % 58 % 0 % 1013,9 hPa 0,0 l/m 0,0 km/h (0 Bft) W 270 0 min 0,0 UV-I 13,3 C 24,7 C 0,0 km/h (0 Bft)
10.09.2012 19:15 24,4 C 23,2 C 22,6 C 24,3 C 24,1 C 0,0 C 50 % 60 % 0 % 1013,9 hPa 0,0 l/m 0,0 km/h (0 Bft) N-NO 22 0 min 0,0 UV-I 13,3 C 24,1 C 0,0 km/h (0 Bft)
10.09.2012 19:20 24,1 C 23,2 C 22,5 C 23,9 C 23,5 C 0,0 C 52 % 61 % 0 % 1013,9 hPa 0,0 l/m 0,0 km/h (0 Bft) SW 225 0 min 0,0 UV-I 13,6 C 23,5 C 0,0 km/h (0 Bft)
10.09.2012 19:25 23,7 C 23,2 C 22,4 C 23,4 C 22,8 C 0,0 C 54 % 63 % 0 % 1014,0 hPa 0,0 l/m 0,0 km/h (0 Bft) S-SW 202 0 min 0,0 UV-I 13,8 C 22,8 C 0,0 km/h (0 Bft)
10.09.2012 19:30 23,4 C 23,2 C 22,0 C 23,0 C 22,2 C 0,0 C 55 % 63 % 0 % 1014,0 hPa 0,0 l/m 0,0 km/h (0 Bft) O-NO 67 0 min 0,0 UV-I 13,8 C 22,2 C 0,0 km/h (0 Bft)
10.09.2012 19:35 23,1 C 23,2 C 21,6 C 22,6 C 21,5 C 0,0 C 55 % 64 % 0 % 1014,0 hPa 0,0 l/m 0,0 km/h (0 Bft) O-NO 67 0 min 0,0 UV-I 13,6 C 21,5 C 0,0 km/h (0 Bft)
10.09.2012 19:40 22,8 C 23,2 C 21,3 C 22,2 C 21,1 C 0,0 C 56 % 65 % 0 % 1014,0 hPa 0,0 l/m 0,0 km/h (0 Bft) NO 45 0 min 0,0 UV-I 13,6 C 21,1 C 0,0 km/h (0 Bft)
10.09.2012 19:45 22,3 C 23,2 C 21,1 C 21,8 C 20,7 C 0,0 C 58 % 66 % 0 % 1014,1 hPa 0,0 l/m 0,0 km/h (0 Bft) NO 45 0 min 0,0 UV-I 13,6 C 20,7 C 0,0 km/h (0 Bft)
10.09.2012 19:50 22,0 C 23,2 C 20,9 C 21,4 C 20,2 C 0,0 C 58 % 66 % 0 % 1014,1 hPa 0,0 l/m 0,0 km/h (0 Bft) O-SO 112 0 min 0,0 UV-I 13,3 C 20,2 C 0,0 km/h (0 Bft)
10.09.2012 19:55 21,6 C 23,2 C 20,6 C 21,0 C 19,7 C 0,0 C 60 % 67 % 0 % 1014,1 hPa 0,0 l/m 0,0 km/h (0 Bft) O-SO 112 0 min 0,0 UV-I 13,5 C 19,7 C 0,0 km/h (0 Bft)
10.09.2012 20:00 21,3 C 23,2 C 20,3 C 20,7 C 19,4 C 0,0 C 60 % 68 % 0 % 1014,1 hPa 0,0 l/m 0,0 km/h (0 Bft) O-NO 67 0 min 0,0 UV-I 13,2 C 19,4 C 0,0 km/h (0 Bft)
10.09.2012 20:05 21,0 C 23,2 C 19,9 C 20,4 C 19,1 C 0,0 C 62 % 69 % 0 % 1014,2 hPa 0,0 l/m 0,0 km/h (0 Bft) NO 45 0 min 0,0 UV-I 13,4 C 19,1 C 0,0 km/h (0 Bft)
10.09.2012 20:10 20,7 C 23,2 C 19,7 C 20,1 C 18,9 C 0,0 C 63 % 70 % 0 % 1014,2 hPa 0,0 l/m 0,0 km/h (0 Bft) N-NO 22 0 min 0,0 UV-I 13,4 C 18,9 C 0,0 km/h (0 Bft)
10.09.2012 20:15 20,4 C 23,2 C 19,6 C 19,8 C 18,5 C 0,0 C 64 % 71 % 0 % 1014,2 hPa 0,0 l/m 0,0 km/h (0 Bft) O 90 0 min 0,0 UV-I 13,4 C 18,5 C 0,0 km/h (0 Bft)
10.09.2012 20:20 20,1 C 23,3 C 19,5 C 19,5 C 18,4 C 0,0 C 65 % 71 % 0 % 1014,2 hPa 0,0 l/m 0,0 km/h (0 Bft) NO 45 0 min 0,0 UV-I 13,3 C 18,4 C 0,0 km/h (0 Bft)
10.09.2012 20:25 19,8 C 23,3 C 19,2 C 19,3 C 18,2 C 0,0 C 65 % 72 % 0 % 1014,5 hPa 0,0 l/m 0,0 km/h (0 Bft) N-NW 337 0 min 0,0 UV-I 13,0 C 18,2 C 0,0 km/h (0 Bft)
10.09.2012 20:30 19,6 C 23,3 C 19,2 C 19,1 C 18,1 C 0,0 C 65 % 72 % 0 % 1014,5 hPa 0,0 l/m 0,0 km/h (0 Bft) N-NO 22 0 min 0,0 UV-I 12,8 C 18,1 C 0,0 km/h (0 Bft)
10.09.2012 20:35 19,5 C 23,3 C 19,2 C 19,0 C 18,0 C 0,0 C 66 % 72 % 0 % 1014,5 hPa 0,0 l/m 0,2 km/h (0 Bft) SW 225 0 min 0,0 UV-I 13,0 C 18,0 C 2,3 km/h (1 Bft)
10.09.2012 20:40 19,3 C 23,3 C 19,2 C 18,8 C 17,9 C 0,0 C 68 % 72 % 0 % 1014,5 hPa 0,0 l/m 0,3 km/h (0 Bft) SW 225 0 min 0,0 UV-I 13,2 C 17,9 C 0,0 km/h (0 Bft)
10.09.2012 20:45 19,1 C 23,3 C 19,2 C 18,7 C 17,8 C 0,0 C 69 % 74 % 0 % 1014,5 hPa 0,0 l/m 0,3 km/h (0 Bft) NW 315 0 min 0,0 UV-I 13,3 C 17,8 C 0,0 km/h (0 Bft)
10.09.2012 20:50 19,1 C 23,3 C 19,1 C 18,6 C 17,6 C 0,0 C 70 % 74 % 0 % 1014,5 hPa 0,0 l/m 0,0 km/h (0 Bft) W 270 0 min 0,0 UV-I 13,5 C 17,6 C 0,0 km/h (0 Bft)
10.09.2012 20:55 18,9 C 23,3 C 18,8 C 18,4 C 17,4 C 0,0 C 71 % 75 % 0 % 1014,5 hPa 0,0 l/m 0,0 km/h (0 Bft) W 270 0 min 0,0 UV-I 13,5 C 17,4 C 0,0 km/h (0 Bft)
10.09.2012 21:00 18,7 C 23,3 C 18,8 C 18,3 C 17,4 C 0,0 C 71 % 75 % 0 % 1014,5 hPa 0,0 l/m 0,0 km/h (0 Bft) O-NO 67 0 min 0,0 UV-I 13,3 C 17,4 C 0,0 km/h (0 Bft)
10.09.2012 21:05 18,5 C 23,3 C 18,6 C 18,2 C 17,5 C 0,0 C 71 % 75 % 0 % 1014,7 hPa 0,0 l/m 0,0 km/h (0 Bft) O-NO 67 0 min 0,0 UV-I 13,1 C 17,5 C 0,0 km/h (0 Bft)
10.09.2012 21:10 18,4 C 23,3 C 18,5 C 18,1 C 17,4 C 0,0 C 72 % 76 % 0 % 1014,7 hPa 0,0 l/m 0,0 km/h (0 Bft) SW 225 0 min 0,0 UV-I 13,3 C 17,4 C 0,0 km/h (0 Bft)
10.09.2012 21:15 18,2 C 23,3 C 18,5 C 17,9 C 17,3 C 0,0 C 73 % 76 % 0 % 1014,7 hPa 0,0 l/m 0,2 km/h (0 Bft) S-SO 157 0 min 0,0 UV-I 13,3 C 17,3 C 0,0 km/h (0 Bft)
10.09.2012 21:20 18,0 C 23,3 C 18,5 C 17,7 C 17,2 C 0,0 C 73 % 76 % 0 % 1014,7 hPa 0,0 l/m 0,2 km/h (0 Bft) O 90 0 min 0,0 UV-I 13,1 C 17,2 C 0,0 km/h (0 Bft)
10.09.2012 21:25 18,0 C 23,3 C 18,2 C 17,7 C 17,1 C 0,0 C 74 % 77 % 0 % 1014,9 hPa 0,0 l/m 0,0 km/h (0 Bft) O 90 0 min 0,0 UV-I 13,3 C 17,1 C 0,0 km/h (0 Bft)
10.09.2012 21:30 17,9 C 23,3 C 18,0 C 17,6 C 17,1 C 0,0 C 74 % 77 % 0 % 1014,9 hPa 0,0 l/m 0,0 km/h (0 Bft) W 270 0 min 0,0 UV-I 13,2 C 17,1 C 0,0 km/h (0 Bft)
10.09.2012 21:35 17,9 C 23,3 C 18,0 C 17,6 C 17,0 C 0,0 C 74 % 77 % 0 % 1014,9 hPa 0,0 l/m 0,0 km/h (0 Bft) W 270 0 min 0,0 UV-I 13,2 C 17,0 C 0,0 km/h (0 Bft)
10.09.2012 21:40 17,7 C 23,3 C 18,1 C 17,4 C 16,9 C 0,0 C 74 % 78 % 0 % 1014,9 hPa 0,0 l/m 0,0 km/h (0 Bft) SW 225 0 min 0,0 UV-I 13,0 C 16,9 C 0,0 km/h (0 Bft)
10.09.2012 21:45 17,7 C 23,3 C 17,9 C 17,4 C 16,7 C 0,0 C 75 % 78 % 0 % 1015,2 hPa 0,0 l/m 0,0 km/h (0 Bft) SO 135 0 min 0,0 UV-I 13,2 C 16,7 C 0,0 km/h (0 Bft)
10.09.2012 21:50 17,5 C 23,3 C 17,6 C 17,2 C 16,5 C 0,0 C 75 % 78 % 0 % 1015,2 hPa 0,0 l/m 0,0 km/h (0 Bft) SO 135 0 min 0,0 UV-I 13,0 C 16,5 C 0,0 km/h (0 Bft)
10.09.2012 21:55 17,3 C 23,3 C 17,5 C 17,0 C 16,5 C 0,0 C 75 % 78 % 0 % 1015,2 hPa 0,0 l/m 0,0 km/h (0 Bft) O-NO 67 0 min 0,0 UV-I 12,8 C 16,5 C 0,0 km/h (0 Bft)
10.09.2012 22:00 17,2 C 23,3 C 17,4 C 16,9 C 16,4 C 0,0 C 75 % 78 % 0 % 1015,2 hPa 0,0 l/m 0,0 km/h (0 Bft) O-NO 67 0 min 0,0 UV-I 12,7 C 16,4 C 0,0 km/h (0 Bft)
10.09.2012 22:05 17,1 C 23,3 C 17,4 C 16,8 C 16,2 C 0,0 C 75 % 78 % 0 % 1014,9 hPa 0,0 l/m 0,0 km/h (0 Bft) O-NO 67 0 min 0,0 UV-I 12,6 C 16,2 C 0,0 km/h (0 Bft)
10.09.2012 22:10 17,1 C 23,3 C 17,2 C 16,8 C 16,1 C 0,0 C 75 % 78 % 0 % 1014,9 hPa 0,0 l/m 0,0 km/h (0 Bft) O-NO 67 0 min 0,0 UV-I 12,6 C 16,1 C 0,0 km/h (0 Bft)
10.09.2012 22:15 16,8 C 23,3 C 17,2 C 16,5 C 15,8 C 0,0 C 76 % 79 % 0 % 1014,9 hPa 0,0 l/m 0,0 km/h (0 Bft) W-SW 247 0 min 0,0 UV-I 12,5 C 15,8 C 0,0 km/h (0 Bft)
10.09.2012 22:20 16,8 C 23,3 C 17,3 C 16,4 C 15,7 C 0,0 C 77 % 79 % 0 % 1014,9 hPa 0,0 l/m 0,0 km/h (0 Bft) O-NO 67 0 min 0,0 UV-I 12,7 C 15,7 C 0,0 km/h (0 Bft)
10.09.2012 22:25 16,7 C 23,3 C 17,1 C 16,3 C 15,6 C 0,0 C 77 % 79 % 0 % 1014,8 hPa 0,0 l/m 0,0 km/h (0 Bft) N-NO 22 0 min 0,0 UV-I 12,6 C 15,6 C 0,0 km/h (0 Bft)
10.09.2012 22:30 16,5 C 23,3 C 17,1 C 16,2 C 15,5 C 0,0 C 77 % 80 % 0 % 1014,8 hPa 0,0 l/m 0,0 km/h (0 Bft) S-SW 202 0 min 0,0 UV-I 12,5 C 15,5 C 0,0 km/h (0 Bft)
10.09.2012 22:35 16,4 C 23,3 C 16,8 C 16,1 C 15,4 C 0,0 C 77 % 80 % 0 % 1014,8 hPa 0,0 l/m 0,0 km/h (0 Bft) SW 225 0 min 0,0 UV-I 12,4 C 15,4 C 0,0 km/h (0 Bft)
10.09.2012 22:40 16,3 C 23,3 C 16,7 C 16,0 C 15,3 C 0,0 C 78 % 80 % 0 % 1014,8 hPa 0,0 l/m 0,0 km/h (0 Bft) O 90 0 min 0,0 UV-I 12,5 C 15,3 C 0,0 km/h (0 Bft)
10.09.2012 22:45 16,0 C 23,5 C 16,7 C 15,8 C 15,4 C 0,0 C 79 % 81 % 0 % 1014,8 hPa 0,0 l/m 0,0 km/h (0 Bft) O-NO 67 0 min 0,0 UV-I 12,4 C 15,4 C 0,0 km/h (0 Bft)
10.09.2012 22:50 15,9 C 23,4 C 16,7 C 15,8 C 15,5 C 0,0 C 79 % 82 % 0 % 1014,8 hPa 0,0 l/m 0,0 km/h (0 Bft) O 90 0 min 0,0 UV-I 12,3 C 15,5 C 0,0 km/h (0 Bft)
10.09.2012 22:55 15,7 C 23,4 C 16,5 C 15,6 C 15,4 C 0,0 C 79 % 82 % 0 % 1014,8 hPa 0,0 l/m 0,0 km/h (0 Bft) O-NO 67 0 min 0,0 UV-I 12,1 C 15,4 C 0,0 km/h (0 Bft)
10.09.2012 23:00 15,7 C 23,4 C 16,4 C 15,6 C 15,3 C 0,0 C 79 % 82 % 0 % 1014,8 hPa 0,0 l/m 0,0 km/h (0 Bft) O-NO 67 0 min 0,0 UV-I 12,1 C 15,3 C 0,0 km/h (0 Bft)
10.09.2012 23:05 15,5 C 23,4 C 16,4 C 15,4 C 15,1 C 0,0 C 80 % 82 % 0 % 1014,6 hPa 0,0 l/m 0,0 km/h (0 Bft) S-SW 202 0 min 0,0 UV-I 12,1 C 15,1 C 0,0 km/h (0 Bft)
10.09.2012 23:10 15,5 C 23,3 C 16,5 C 15,3 C 14,9 C 0,0 C 80 % 82 % 0 % 1014,6 hPa 0,0 l/m 0,0 km/h (0 Bft) W-SW 247 0 min 0,0 UV-I 12,1 C 14,9 C 2,1 km/h (1 Bft)
10.09.2012 23:15 15,3 C 23,3 C 16,3 C 15,1 C 14,8 C 0,0 C 80 % 82 % 0 % 1014,6 hPa 0,0 l/m 0,2 km/h (0 Bft) W-SW 247 0 min 0,0 UV-I 11,9 C 14,8 C 0,0 km/h (0 Bft)
10.09.2012 23:20 15,1 C 23,4 C 16,2 C 15,0 C 14,7 C 0,0 C 80 % 82 % 0 % 1014,6 hPa 0,0 l/m 0,2 km/h (0 Bft) O-NO 67 0 min 0,0 UV-I 11,7 C 14,7 C 0,0 km/h (0 Bft)
10.09.2012 23:25 14,9 C 23,4 C 16,1 C 14,8 C 14,6 C 0,0 C 81 % 83 % 0 % 1014,5 hPa 0,0 l/m 0,0 km/h (0 Bft) O-NO 67 0 min 0,0 UV-I 11,7 C 14,6 C 0,0 km/h (0 Bft)
10.09.2012 23:30 14,8 C 23,3 C 16,0 C 14,7 C 14,6 C 0,0 C 81 % 83 % 0 % 1014,5 hPa 0,0 l/m 0,0 km/h (0 Bft) O-NO 67 0 min 0,0 UV-I 11,6 C 14,6 C 0,0 km/h (0 Bft)
10.09.2012 23:35 14,7 C 23,3 C 16,1 C 14,6 C 14,4 C 0,0 C 81 % 83 % 0 % 1014,5 hPa 0,0 l/m 0,0 km/h (0 Bft) O-NO 67 0 min 0,0 UV-I 11,5 C 14,4 C 0,0 km/h (0 Bft)
10.09.2012 23:40 14,7 C 23,4 C 16,0 C 14,6 C 14,3 C 0,0 C 82 % 83 % 0 % 1014,5 hPa 0,0 l/m 0,0 km/h (0 Bft) O-NO 67 0 min 0,0 UV-I 11,7 C 14,3 C 0,0 km/h (0 Bft)
10.09.2012 23:45 14,5 C 23,3 C 15,9 C 14,4 C 14,3 C 0,0 C 82 % 84 % 0 % 1014,7 hPa 0,0 l/m 0,0 km/h (0 Bft) O-NO 67 0 min 0,0 UV-I 11,5 C 14,3 C 0,0 km/h (0 Bft)
10.09.2012 23:50 14,5 C 23,3 C 15,9 C 14,4 C 14,1 C 0,0 C 82 % 84 % 0 % 1014,7 hPa 0,0 l/m 0,0 km/h (0 Bft) SW 225 0 min 0,0 UV-I 11,5 C 14,1 C 0,0 km/h (0 Bft)
10.09.2012 23:55 14,3 C 23,3 C 15,7 C 14,2 C 14,1 C 0,0 C 82 % 84 % 0 % 1014,7 hPa 0,0 l/m 0,0 km/h (0 Bft) W-SW 247 0 min 0,0 UV-I 11,3 C 14,1 C 0,0 km/h (0 Bft)
_ Min-Zeit 06:46 07:32 05:50 05:55 05:55 00:00 16:15 17:30 00:00 06:25 - 00:00 - - - 00:00 17:30 05:55 00:00
Minimum _ 12,3 C 20,2 C 13,8 C 12,7 C 12,7 C 0,0 C 28 % 37 % 0 % 1013,6 hPa - 0,0 km/h (0 Bft) - - - 0,0 UV-I 10,1 C 12,7 C 0,0 km/h (0 Bft)
_ Max-Zeit 16:35 22:45 17:25 16:00 16:00 08:42 07:37 05:30 07:42 11:05 00:00 12:47 - - 06:55 13:20 10:37 16:00 14:05
Maximum _ 32,7 C 23,5 C 28,6 C 36,8 C 36,8 C 7,1 C 91 % 89 % 100 % 1015,3 hPa 0,0 l/m 6,9 km/h
W-SW (2 Bft)
- - 9 min 4,2 UV-I 16,4 C 36,8 C 16,7 km/h
W (3 Bft)
Durchschnitt _ 20,6 C 22,6 C 20,1 C 22,2 C 22,0 C 1,7 C 65 % 71 % 38 % 1014,4 hPa #0,0 l/m 0,8 km/h (0 Bft) W-SW - #6:51 h 1,8 UV-I 12,7 C 22,0 C 1,1 km/h (0 Bft)
2012 www.wetterstation-wechselburg.de